Time;durP1;ratioP1;P1;durP2;ratioP2;P2;SDS_P1;SDS_P2;PMS_P1;PMS_P2;Temp;Humidity;BMP_temperature;BMP_pressure;BME280_temperature;BME280_humidity;BME280_pressure;Samples;Min_cycle;Max_cycle;Signal;HPM_P1;HPM_P2
2022/06/21 00:00:15;;;;;;;11.87;9.03;;;20.80;99.90;;;;;;5091178;28;20467;-47
2022/06/21 00:02:43;;;;;;;11.07;9.97;;;20.80;99.90;;;;;;5091250;28;20467;-48
2022/06/21 00:05:14;;;;;;;11.73;8.90;;;20.80;99.90;;;;;;5090615;28;20447;-50
2022/06/21 00:07:41;;;;;;;13.57;9.63;;;20.80;99.90;;;;;;5091000;28;20542;-47
2022/06/21 00:10:16;;;;;;;9.97;8.97;;;20.80;99.90;;;;;;5090917;28;20475;-50
2022/06/21 00:12:43;;;;;;;11.03;9.90;;;20.80;99.90;;;;;;5091037;28;20557;-49
2022/06/21 00:15:12;;;;;;;8.93;8.13;;;20.70;99.90;;;;;;5090988;28;20944;-47
2022/06/21 00:17:41;;;;;;;10.17;8.17;;;20.70;99.90;;;;;;5090873;28;20487;-49
2022/06/21 00:20:13;;;;;;;11.63;9.77;;;20.70;99.90;;;;;;5090438;28;20471;-47
2022/06/21 00:22:40;;;;;;;10.17;9.13;;;20.70;99.90;;;;;;5090985;28;20441;-47
2022/06/21 00:25:16;;;;;;;10.80;9.43;;;20.80;99.90;;;;;;5091304;28;20475;-48
2022/06/21 00:27:42;;;;;;;10.53;9.23;;;20.70;99.90;;;;;;5090830;28;20851;-47
2022/06/21 00:30:12;;;;;;;11.17;10.07;;;20.40;99.90;;;;;;5090663;28;20470;-52
2022/06/21 00:32:39;;;;;;;11.53;10.43;;;20.20;99.90;;;;;;5090810;28;20471;-48
2022/06/21 00:35:11;;;;;;;13.00;9.93;;;19.90;99.90;;;;;;5091130;28;20488;-48
2022/06/21 00:37:38;;;;;;;11.93;10.07;;;19.70;99.90;;;;;;5094244;28;20538;-48
2022/06/21 00:40:17;;;;;;;11.97;10.60;;;19.80;99.90;;;;;;5094035;28;20523;-48
2022/06/21 00:42:47;;;;;;;11.73;10.53;;;19.80;99.90;;;;;;5094334;28;20463;-48
2022/06/21 00:45:24;;;;;;;10.67;8.93;;;19.60;99.90;;;;;;5094555;28;20436;-47
2022/06/21 00:47:53;;;;;;;11.13;9.43;;;19.60;99.90;;;;;;5094514;28;20467;-48
2022/06/21 00:50:27;;;;;;;11.57;9.77;;;19.70;99.90;;;;;;5094225;28;20478;-47
2022/06/21 00:53:00;;;;;;;10.53;9.50;;;19.80;99.90;;;;;;5093928;28;20507;-49
2022/06/21 00:55:37;;;;;;;11.90;10.10;;;19.90;99.90;;;;;;5093854;28;20471;-48
2022/06/21 00:58:05;;;;;;;14.03;9.93;;;20.00;99.90;;;;;;5093939;28;20475;-47
2022/06/21 01:00:36;;;;;;;14.77;13.33;;;20.00;99.90;;;;;;5093876;28;20471;-47
2022/06/21 01:03:07;;;;;;;17.00;11.17;;;19.90;99.90;;;;;;5093876;28;20470;-50
2022/06/21 01:05:38;;;;;;;13.20;11.80;;;19.80;99.90;;;;;;5093330;28;20443;-47
2022/06/21 01:08:06;;;;;;;11.13;10.13;;;19.90;99.90;;;;;;5093652;28;20564;-51
2022/06/21 01:10:33;;;;;;;12.70;11.50;;;19.90;99.90;;;;;;5093573;28;20494;-47
2022/06/21 01:13:05;;;;;;;13.33;9.30;;;19.90;99.90;;;;;;5093594;28;20879;-48
2022/06/21 01:15:37;;;;;;;11.90;10.70;;;19.70;99.90;;;;;;5093552;28;20478;-48
2022/06/21 01:18:07;;;;;;;13.40;12.00;;;19.70;99.90;;;;;;5093531;28;20474;-47
2022/06/21 01:20:37;;;;;;;10.37;9.37;;;19.80;99.90;;;;;;5093584;28;20471;-47
2022/06/21 01:23:27;;;;;;;11.07;9.97;;;19.90;99.90;;;;;;5093635;28;20475;-48
2022/06/21 01:26:18;;;;;;;12.07;9.63;;;20.00;99.90;;;;;;5093288;28;20475;-47
2022/06/21 01:28:48;;;;;;;12.83;9.23;;;20.10;99.90;;;;;;5093389;28;20530;-48
2022/06/21 01:31:16;;;;;;;10.40;9.33;;;20.20;99.90;;;;;;5093366;28;20999;-48
2022/06/21 01:33:43;;;;;;;11.63;10.03;;;20.20;99.90;;;;;;5093238;28;20500;-47
2022/06/21 01:36:14;;;;;;;11.27;10.20;;;20.30;99.90;;;;;;5093160;28;20517;-48
2022/06/21 01:38:46;;;;;;;10.20;9.30;;;20.30;99.90;;;;;;5092960;28;20538;-46
2022/06/21 01:41:16;;;;;;;9.90;9.10;;;20.40;99.90;;;;;;5093375;28;20501;-47
2022/06/21 01:43:47;;;;;;;11.83;10.63;;;20.40;99.90;;;;;;5093229;28;20462;-47
2022/06/21 01:46:20;;;;;;;11.80;10.70;;;20.40;99.90;;;;;;5093225;28;20889;-48
2022/06/21 01:48:49;;;;;;;10.90;9.73;;;20.40;99.90;;;;;;5092621;28;20475;-45
2022/06/21 01:51:21;;;;;;;9.20;8.40;;;20.40;99.90;;;;;;5092621;28;20797;-48
2022/06/21 01:53:48;;;;;;;12.00;9.97;;;20.20;99.90;;;;;;5093149;28;20528;-47
2022/06/21 01:56:21;;;;;;;11.07;10.07;;;20.10;99.90;;;;;;5092776;28;20502;-49
2022/06/21 01:58:55;;;;;;;11.73;10.17;;;20.00;99.90;;;;;;5092459;28;20995;-47
2022/06/21 02:01:27;;;;;;;10.30;9.30;;;20.00;99.90;;;;;;5092742;28;20438;-49
2022/06/21 02:03:57;;;;;;;10.97;9.87;;;19.90;99.90;;;;;;5092805;28;20529;-47
2022/06/21 02:06:27;;;;;;;12.97;9.47;;;19.90;99.90;;;;;;5092223;28;20463;-48
2022/06/21 02:08:59;;;;;;;12.33;10.43;;;19.90;99.90;;;;;;5092082;28;20522;-47
2022/06/21 02:11:30;;;;;;;11.10;9.83;;;19.90;99.90;;;;;;5092557;28;20470;-49
2022/06/21 02:16:50;;;;;;;9.80;8.40;;;20.10;99.90;;;;;;5092374;28;20451;-45
2022/06/21 02:19:25;;;;;;;10.07;9.17;;;20.20;99.90;;;;;;5092355;28;20475;-48
2022/06/21 02:21:52;;;;;;;10.33;9.40;;;20.20;99.90;;;;;;5092232;28;20486;-47
2022/06/21 02:24:23;;;;;;;9.63;8.50;;;20.20;99.90;;;;;;5092359;28;20440;-47
2022/06/21 02:26:51;;;;;;;14.27;9.40;;;20.10;99.90;;;;;;5092277;28;20467;-47
2022/06/21 02:29:19;;;;;;;10.67;9.33;;;20.10;99.90;;;;;;5091927;28;20448;-48
2022/06/21 02:31:46;;;;;;;9.90;9.00;;;20.10;99.90;;;;;;5092186;28;20467;-47
2022/06/21 02:34:19;;;;;;;12.73;9.40;;;20.10;99.90;;;;;;5092110;28;20873;-50
2022/06/21 02:36:51;;;;;;;13.20;9.67;;;20.10;99.90;;;;;;5092019;28;20459;-47
2022/06/21 02:39:22;;;;;;;9.57;8.60;;;19.90;99.90;;;;;;5092113;28;20471;-47
2022/06/21 02:41:52;;;;;;;11.30;10.20;;;19.70;99.90;;;;;;5092123;28;20469;-47
2022/06/21 02:44:26;;;;;;;12.20;10.67;;;19.60;99.90;;;;;;5092104;28;20472;-49
2022/06/21 02:46:57;;;;;;;10.47;9.30;;;19.60;99.90;;;;;;5091885;28;20755;-48
2022/06/21 02:49:28;;;;;;;11.70;10.47;;;19.70;99.90;;;;;;5092037;28;20443;-47
2022/06/21 02:51:59;;;;;;;10.63;9.60;;;19.60;99.90;;;;;;5091751;28;20562;-47
2022/06/21 02:54:28;;;;;;;10.50;9.30;;;19.70;99.90;;;;;;5091803;28;20983;-48
2022/06/21 02:57:01;;;;;;;12.30;9.67;;;19.70;99.90;;;;;;5091677;28;20491;-47
2022/06/21 02:59:34;;;;;;;12.90;10.77;;;19.80;99.90;;;;;;5090811;28;20932;-52
2022/06/21 03:02:07;;;;;;;11.13;10.03;;;19.80;99.90;;;;;;5091548;28;20496;-49
2022/06/21 03:04:39;;;;;;;10.73;9.37;;;19.80;99.90;;;;;;5091704;28;20447;-48
2022/06/21 03:07:07;;;;;;;11.67;10.50;;;19.90;99.90;;;;;;5091293;28;20514;-47
2022/06/21 03:09:35;;;;;;;11.40;9.67;;;19.90;99.90;;;;;;5090967;28;20447;-48
2022/06/21 03:12:05;;;;;;;10.80;9.37;;;19.90;99.90;;;;;;5091759;28;20900;-47
2022/06/21 03:14:35;;;;;;;12.57;10.20;;;19.70;99.90;;;;;;5091849;28;20475;-48
2022/06/21 03:17:04;;;;;;;14.83;8.93;;;19.50;99.90;;;;;;5091499;28;20487;-48
2022/06/21 03:19:37;;;;;;;11.63;10.53;;;19.50;99.90;;;;;;5091250;28;20440;-50
2022/06/21 03:22:11;;;;;;;10.80;9.80;;;19.40;99.90;;;;;;5091231;28;20485;-48
2022/06/21 03:24:39;;;;;;;13.37;10.33;;;19.30;99.90;;;;;;5091819;28;20521;-49
2022/06/21 03:27:15;;;;;;;10.53;9.37;;;19.10;99.90;;;;;;5092716;28;20506;-50
2022/06/21 03:29:44;;;;;;;10.40;9.30;;;19.10;99.90;;;;;;5091220;28;20471;-49
2022/06/21 03:32:11;;;;;;;11.17;10.07;;;19.10;99.90;;;;;;5091109;28;20507;-48
2022/06/21 03:34:38;;;;;;;12.43;11.23;;;19.20;99.90;;;;;;5091324;28;20951;-47
2022/06/21 03:37:06;;;;;;;13.50;11.10;;;19.30;99.90;;;;;;5091144;28;20494;-47
2022/06/21 03:42:20;;;;;;;14.70;12.50;;;19.40;99.90;;;;;;5091468;28;20438;-47
2022/06/21 03:44:54;;;;;;;13.03;11.13;;;19.50;99.90;;;;;;5091210;28;20443;-48
2022/06/21 03:47:26;;;;;;;15.30;11.90;;;19.40;99.90;;;;;;5091429;28;20463;-48
2022/06/21 03:49:58;;;;;;;12.10;10.80;;;19.40;99.90;;;;;;5091372;28;20440;-47
2022/06/21 03:52:44;;;;;;;12.53;10.53;;;19.40;99.90;;;;;;5091330;28;20498;-47
2022/06/21 03:55:22;;;;;;;14.23;12.83;;;19.30;99.90;;;;;;5091271;28;20886;-47
2022/06/21 03:57:55;;;;;;;11.97;10.73;;;19.20;99.90;;;;;;5091237;28;20881;-47
2022/06/21 04:00:25;;;;;;;12.57;10.90;;;19.10;99.90;;;;;;5091119;28;20516;-47
2022/06/21 04:02:57;;;;;;;14.03;11.80;;;19.20;99.90;;;;;;5091061;28;20474;-49
2022/06/21 04:05:27;;;;;;;13.10;11.70;;;19.30;99.90;;;;;;5090611;28;20435;-47
2022/06/21 04:07:58;;;;;;;11.67;10.57;;;19.40;99.90;;;;;;5090703;28;20479;-47
2022/06/21 04:10:32;;;;;;;14.07;12.10;;;19.30;99.90;;;;;;5091451;28;20469;-47
2022/06/21 04:13:05;;;;;;;12.50;11.37;;;19.30;99.90;;;;;;5095004;28;20858;-47
2022/06/21 04:15:42;;;;;;;11.47;10.40;;;19.30;99.90;;;;;;5094896;28;20474;-48
2022/06/21 04:18:16;;;;;;;12.10;11.00;;;19.40;99.90;;;;;;5094674;28;20518;-49
2022/06/21 04:20:50;;;;;;;12.37;11.27;;;19.40;99.90;;;;;;5094871;28;20444;-48
2022/06/21 04:23:21;;;;;;;13.03;11.67;;;19.50;99.90;;;;;;5094705;28;20482;-47
2022/06/21 04:25:55;;;;;;;14.00;12.57;;;19.40;99.90;;;;;;5094544;28;20498;-50
2022/06/21 04:28:26;;;;;;;13.07;11.77;;;19.30;99.90;;;;;;5094741;28;20449;-49
2022/06/21 04:30:59;;;;;;;16.67;13.43;;;19.30;99.90;;;;;;5094486;28;20436;-48
2022/06/21 04:33:30;;;;;;;17.07;15.27;;;19.40;99.90;;;;;;5094509;28;20578;-47
2022/06/21 04:36:02;;;;;;;15.33;12.77;;;19.40;99.90;;;;;;5094737;28;20460;-47
2022/06/21 04:38:35;;;;;;;16.43;13.00;;;19.40;99.90;;;;;;5094851;28;20471;-48
2022/06/21 04:41:07;;;;;;;14.80;13.30;;;19.40;99.90;;;;;;5094044;28;20868;-47
2022/06/21 04:43:40;;;;;;;14.30;12.77;;;19.40;99.90;;;;;;5094208;28;20471;-49
2022/06/21 04:46:14;;;;;;;12.63;11.33;;;19.40;99.90;;;;;;5094370;28;20499;-47
2022/06/21 04:48:46;;;;;;;14.63;12.90;;;19.50;99.90;;;;;;5094169;28;20492;-45
2022/06/21 04:51:17;;;;;;;13.13;11.73;;;19.60;99.90;;;;;;5094351;28;20530;-50
2022/06/21 04:53:52;;;;;;;12.93;11.80;;;19.60;99.90;;;;;;5094216;28;20524;-47
2022/06/21 04:56:33;;;;;;;17.33;12.80;;;19.60;99.90;;;;;;5093990;28;20617;-51
2022/06/21 04:59:02;;;;;;;13.80;12.50;;;19.60;99.90;;;;;;5093834;28;20470;-48
2022/06/21 05:01:32;;;;;;;14.23;12.33;;;19.70;99.90;;;;;;5093896;28;20448;-48
2022/06/21 05:04:01;;;;;;;13.50;12.13;;;19.60;99.90;;;;;;5093745;28;20444;-47
2022/06/21 05:06:28;;;;;;;14.47;13.07;;;19.60;99.90;;;;;;5093044;28;20542;-47
2022/06/21 05:08:55;;;;;;;13.90;12.60;;;19.50;99.90;;;;;;5093477;28;20955;-47
2022/06/21 05:11:23;;;;;;;14.93;12.57;;;19.50;99.90;;;;;;5093866;28;20445;-47
2022/06/21 05:13:54;;;;;;;12.90;11.60;;;19.40;99.90;;;;;;5093498;28;20479;-47
2022/06/21 05:16:25;;;;;;;14.80;13.30;;;19.40;99.90;;;;;;5093661;28;20509;-47
2022/06/21 05:18:57;;;;;;;14.30;12.60;;;19.40;99.90;;;;;;5093983;28;20446;-47
2022/06/21 05:21:32;;;;;;;13.93;12.53;;;19.40;99.90;;;;;;5093183;28;20481;-47
2022/06/21 05:24:00;;;;;;;13.90;12.50;;;19.40;99.90;;;;;;5094042;28;20475;-47
2022/06/21 05:26:34;;;;;;;18.17;13.10;;;19.40;99.90;;;;;;5093457;28;20466;-49
2022/06/21 05:29:08;;;;;;;14.40;12.27;;;19.40;99.90;;;;;;5093173;28;20871;-47
2022/06/21 05:31:41;;;;;;;14.43;13.07;;;19.50;99.90;;;;;;5093610;28;20467;-47
2022/06/21 05:34:14;;;;;;;14.13;12.73;;;19.50;99.90;;;;;;5093319;28;20486;-49
2022/06/21 05:36:48;;;;;;;14.30;12.80;;;19.60;99.90;;;;;;5093692;28;20555;-47
2022/06/21 05:39:20;;;;;;;13.87;12.57;;;19.50;99.90;;;;;;5093365;28;20439;-49
2022/06/21 05:41:50;;;;;;;13.90;12.60;;;19.50;99.90;;;;;;5093209;28;20531;-47
2022/06/21 05:44:27;;;;;;;15.80;13.63;;;19.60;99.90;;;;;;5093204;28;20443;-47
2022/06/21 05:46:58;;;;;;;14.20;12.90;;;19.50;99.90;;;;;;5093411;28;20459;-47
2022/06/21 05:49:30;;;;;;;14.33;12.07;;;19.50;99.90;;;;;;5092854;28;20481;-50
2022/06/21 05:52:01;;;;;;;16.20;12.57;;;19.60;99.90;;;;;;5092928;28;20461;-47
2022/06/21 05:54:34;;;;;;;13.10;11.70;;;19.50;99.90;;;;;;5093108;28;20470;-47
2022/06/21 05:57:02;;;;;;;15.13;11.90;;;19.50;99.90;;;;;;5092995;28;20584;-47
2022/06/21 05:59:29;;;;;;;13.10;11.80;;;19.60;99.90;;;;;;5092731;28;20447;-52
2022/06/21 06:02:01;;;;;;;12.20;11.13;;;19.60;99.90;;;;;;5092697;28;20475;-47
2022/06/21 06:04:34;;;;;;;13.30;12.00;;;19.60;99.90;;;;;;5092412;28;20811;-47
2022/06/21 06:07:04;;;;;;;12.37;11.20;;;19.80;99.90;;;;;;5092441;28;20464;-47
2022/06/21 06:09:35;;;;;;;13.93;12.67;;;19.70;99.90;;;;;;5092172;28;20448;-49
2022/06/21 06:12:05;;;;;;;12.43;11.33;;;19.80;99.90;;;;;;5092617;28;20461;-47
2022/06/21 06:14:40;;;;;;;15.30;13.70;;;19.80;99.90;;;;;;5092705;28;20591;-49
2022/06/21 06:17:14;;;;;;;14.10;12.70;;;19.80;99.90;;;;;;5092233;28;20469;-50
2022/06/21 06:19:50;;;;;;;15.07;13.40;;;19.80;99.90;;;;;;5091427;28;20471;-50
2022/06/21 06:22:22;;;;;;;14.57;13.00;;;19.70;99.90;;;;;;5091142;28;20431;-47
2022/06/21 06:24:55;;;;;;;14.93;13.53;;;19.70;99.90;;;;;;5092137;28;20863;-49
2022/06/21 06:27:32;;;;;;;13.97;12.57;;;19.80;99.90;;;;;;5092240;28;20464;-48
2022/06/21 06:30:04;;;;;;;13.43;12.17;;;19.90;99.90;;;;;;5091449;28;20470;-52
2022/06/21 06:32:35;;;;;;;13.80;12.50;;;20.00;99.90;;;;;;5091697;28;20707;-48
2022/06/21 06:35:04;;;;;;;13.37;11.97;;;20.10;99.90;;;;;;5091356;28;20470;-47
2022/06/21 06:37:36;;;;;;;15.27;13.67;;;20.20;99.90;;;;;;5092245;28;20515;-47
2022/06/21 06:40:06;;;;;;;13.77;12.60;;;20.30;99.90;;;;;;5091500;28;20526;-48
2022/06/21 06:42:39;;;;;;;14.10;12.70;;;20.30;99.90;;;;;;5091935;28;20444;-47
2022/06/21 06:45:14;;;;;;;15.60;12.50;;;20.30;99.90;;;;;;5092066;28;20496;-48
2022/06/21 06:47:45;;;;;;;13.07;11.70;;;20.20;99.90;;;;;;5092236;28;20504;-47
2022/06/21 06:50:19;;;;;;;13.40;12.00;;;20.20;99.90;;;;;;5091698;28;20471;-48
2022/06/21 06:52:51;;;;;;;14.10;12.70;;;20.30;99.90;;;;;;5091958;28;20475;-49
2022/06/21 06:55:23;;;;;;;14.93;11.97;;;20.40;99.90;;;;;;5092370;28;20439;-47
2022/06/21 06:57:56;;;;;;;15.87;12.37;;;20.50;99.90;;;;;;5092118;28;20538;-49
2022/06/21 07:00:27;;;;;;;13.80;12.50;;;20.60;99.90;;;;;;5091720;28;20450;-48
2022/06/21 07:03:00;;;;;;;14.77;13.33;;;20.70;99.90;;;;;;5091709;28;20447;-48
2022/06/21 07:05:34;;;;;;;12.87;11.57;;;20.60;99.90;;;;;;5090856;28;20522;-48
2022/06/21 07:08:06;;;;;;;15.00;13.43;;;20.80;99.90;;;;;;5091484;28;20518;-47
2022/06/21 07:10:33;;;;;;;12.73;11.20;;;20.90;99.90;;;;;;5091485;28;20435;-47
2022/06/21 07:13:00;;;;;;;13.70;12.40;;;21.00;99.90;;;;;;5091447;28;20471;-47
2022/06/21 07:15:34;;;;;;;17.00;12.90;;;21.20;99.90;;;;;;5091456;28;20465;-47
2022/06/21 07:18:02;;;;;;;14.27;12.97;;;21.30;99.90;;;;;;5091524;28;20496;-47
2022/06/21 07:20:38;;;;;;;12.27;11.17;;;21.50;99.90;;;;;;5091396;28;20435;-47
2022/06/21 07:23:14;;;;;;;13.13;11.90;;;21.50;99.90;;;;;;5091726;28;20435;-48
2022/06/21 07:25:45;;;;;;;14.23;12.83;;;21.50;99.90;;;;;;5091353;28;20439;-48
2022/06/21 07:28:18;;;;;;;13.10;11.50;;;21.60;99.90;;;;;;5091388;28;20439;-49
2022/06/21 07:30:48;;;;;;;14.17;12.83;;;21.90;99.90;;;;;;5091508;28;20659;-47
2022/06/21 07:33:22;;;;;;;12.70;11.50;;;21.80;99.90;;;;;;5091262;28;20507;-48
2022/06/21 07:35:55;;;;;;;12.50;11.40;;;22.10;99.90;;;;;;5091427;28;20522;-48
2022/06/21 07:38:31;;;;;;;14.13;12.53;;;22.30;99.90;;;;;;5091798;28;20527;-48
2022/06/21 07:41:03;;;;;;;14.67;12.50;;;22.50;99.90;;;;;;5091387;28;20863;-48
2022/06/21 07:43:35;;;;;;;15.07;13.53;;;22.60;99.90;;;;;;5091721;28;20446;-49
2022/06/21 07:46:05;;;;;;;17.07;12.43;;;22.40;99.90;;;;;;5094280;28;20469;-48
2022/06/21 07:48:39;;;;;;;14.00;12.70;;;22.40;99.90;;;;;;5095554;28;20440;-48
2022/06/21 07:51:11;;;;;;;13.23;12.03;;;22.50;99.90;;;;;;5095372;28;20496;-50
2022/06/21 07:53:44;;;;;;;15.70;12.40;;;22.60;99.90;;;;;;5095260;28;20587;-50
2022/06/21 07:56:16;;;;;;;12.87;11.57;;;22.70;99.90;;;;;;5095422;28;20538;-49
2022/06/21 07:58:47;;;;;;;13.70;11.90;;;22.80;99.90;;;;;;5095056;28;20971;-50
2022/06/21 08:07:13;;;;;;;14.90;12.60;;;22.70;99.90;;;;;;5094685;28;20435;-47
2022/06/21 08:09:46;;;;;;;11.70;10.60;;;22.60;99.90;;;;;;5094490;28;20451;-48
2022/06/21 08:12:14;;;;;;;14.03;12.83;;;22.60;99.90;;;;;;5094902;28;21031;-49
2022/06/21 08:14:42;;;;;;;15.93;14.23;;;22.60;99.90;;;;;;5094742;28;20987;-51
2022/06/21 08:17:21;;;;;;;15.63;14.13;;;22.40;99.90;;;;;;5094963;28;20489;-48
2022/06/21 08:19:54;;;;;;;15.23;13.57;;;22.30;99.90;;;;;;5094577;28;20463;-50
2022/06/21 08:22:28;;;;;;;15.83;14.23;;;22.20;99.90;;;;;;5094852;28;20482;-48
2022/06/21 08:24:58;;;;;;;15.97;13.93;;;22.10;99.90;;;;;;5094660;28;20435;-48
2022/06/21 08:27:35;;;;;;;16.93;14.20;;;22.10;99.90;;;;;;5094380;28;20475;-48
2022/06/21 08:30:09;;;;;;;13.83;12.53;;;22.00;99.90;;;;;;5094155;28;20445;-47
2022/06/21 08:32:44;;;;;;;15.50;14.10;;;22.00;99.90;;;;;;5094492;28;20482;-48
2022/06/21 08:35:18;;;;;;;19.67;15.20;;;22.10;99.90;;;;;;5094700;28;20474;-50
2022/06/21 08:37:55;;;;;;;17.17;14.87;;;22.30;99.90;;;;;;5094568;28;20470;-49
2022/06/21 08:40:42;;;;;;;15.37;13.77;;;22.30;99.90;;;;;;5094716;28;20844;-47
2022/06/21 08:43:49;;;;;;;15.20;13.70;;;22.30;99.90;;;;;;5094544;28;20461;-48
2022/06/21 08:46:48;;;;;;;14.90;13.40;;;22.40;99.90;;;;;;5094496;28;20516;-49
2022/06/21 08:49:44;;;;;;;14.87;13.47;;;22.50;99.90;;;;;;5094262;28;20459;-48
2022/06/21 08:52:37;;;;;;;14.10;12.90;;;22.80;99.90;;;;;;5094151;28;20935;-47
2022/06/21 08:55:16;;;;;;;15.87;14.13;;;22.90;99.90;;;;;;5080449;28;20561;-49
2022/06/21 08:57:55;;;;;;;15.73;14.17;;;22.90;99.90;;;;;;5093074;28;20948;-48
2022/06/21 09:00:33;;;;;;;14.63;13.37;;;23.00;99.90;;;;;;5093839;28;20504;-47
2022/06/21 09:03:38;;;;;;;14.87;13.40;;;23.10;99.90;;;;;;5094209;28;20548;-49
2022/06/21 09:06:16;;;;;;;16.40;13.97;;;23.00;99.90;;;;;;5052260;28;20469;-49
2022/06/21 09:09:10;;;;;;;14.97;13.47;;;23.10;99.90;;;;;;5093482;28;20465;-49
2022/06/21 09:11:49;;;;;;;14.00;12.80;;;23.00;99.90;;;;;;5093577;28;20848;-49
2022/06/21 09:14:36;;;;;;;14.27;12.70;;;23.10;99.90;;;;;;5093859;28;20570;-47
2022/06/21 09:17:13;;;;;;;14.33;12.50;;;23.30;99.90;;;;;;5093648;28;20994;-47
2022/06/21 09:19:50;;;;;;;15.20;13.90;;;23.30;99.90;;;;;;5093441;28;20444;-47
2022/06/21 09:22:27;;;;;;;15.83;14.33;;;23.40;99.90;;;;;;5094145;28;21209;-47
2022/06/21 09:24:59;;;;;;;14.90;13.60;;;23.40;99.90;;;;;;5093776;28;20559;-48
2022/06/21 09:27:35;;;;;;;14.70;13.30;;;23.50;99.90;;;;;;5094786;28;20471;-50
2022/06/21 09:30:09;;;;;;;14.93;13.37;;;23.70;99.90;;;;;;5093170;28;20439;-48
2022/06/21 09:32:50;;;;;;;14.03;12.83;;;23.70;99.90;;;;;;5093378;28;20538;-48
2022/06/21 09:35:28;;;;;;;14.40;13.10;;;23.70;99.90;;;;;;5093207;28;20561;-48
2022/06/21 09:38:07;;;;;;;15.13;13.53;;;23.80;99.90;;;;;;5093414;28;20487;-48
2022/06/21 09:40:38;;;;;;;14.83;13.43;;;23.80;99.90;;;;;;5092882;28;20467;-47
2022/06/21 09:43:15;;;;;;;14.40;13.13;;;23.90;99.90;;;;;;5093083;28;20501;-48
2022/06/21 09:45:49;;;;;;;14.40;12.97;;;24.00;99.90;;;;;;5092724;28;20443;-50
2022/06/21 09:48:24;;;;;;;14.97;13.53;;;23.90;99.90;;;;;;5093023;28;20467;-47
2022/06/21 09:51:01;;;;;;;14.73;13.20;;;24.00;99.90;;;;;;5092925;28;20521;-47
2022/06/21 09:53:39;;;;;;;17.43;12.60;;;24.00;99.90;;;;;;5093354;28;20462;-52
2022/06/21 09:56:17;;;;;;;13.30;12.00;;;24.10;99.90;;;;;;5092905;28;20848;-49
2022/06/21 09:58:54;;;;;;;13.07;11.87;;;24.30;99.90;;;;;;5092967;28;20475;-48
2022/06/21 10:01:29;;;;;;;13.40;12.10;;;24.50;99.90;;;;;;5092850;28;20526;-47
2022/06/21 10:04:05;;;;;;;12.60;11.40;;;24.60;99.90;;;;;;5092927;28;20442;-48
2022/06/21 10:06:45;;;;;;;13.20;11.90;;;24.60;99.90;;;;;;5092525;28;20467;-48
2022/06/21 10:09:25;;;;;;;12.90;11.70;;;24.70;99.90;;;;;;5092041;28;20435;-47
2022/06/21 10:12:02;;;;;;;12.80;11.70;;;24.60;99.90;;;;;;5092634;28;20845;-48
2022/06/21 10:15:02;;;;;;;11.67;10.47;;;24.60;99.90;;;;;;5092438;28;20506;-48
2022/06/21 10:18:00;;;;;;;12.07;10.70;;;24.60;99.90;;;;;;5048476;28;20484;-50
2022/06/21 10:20:47;;;;;;;11.07;9.63;;;24.70;99.90;;;;;;5091630;28;20909;-48
2022/06/21 10:23:40;;;;;;;11.43;10.40;;;24.70;99.90;;;;;;5092824;28;20467;-50
2022/06/21 10:26:33;;;;;;;12.23;11.07;;;24.70;99.90;;;;;;5055712;28;20514;-48
2022/06/21 10:29:29;;;;;;;13.20;11.87;;;24.60;99.90;;;;;;5092008;28;20435;-50
2022/06/21 10:32:11;;;;;;;12.37;11.27;;;24.70;99.90;;;;;;5090686;28;20455;-49
2022/06/21 10:35:10;;;;;;;11.27;10.00;;;24.50;99.90;;;;;;5090660;28;20478;-48
2022/06/21 10:37:49;;;;;;;12.27;10.57;;;24.50;99.90;;;;;;5091114;28;20459;-50
2022/06/21 10:40:43;;;;;;;11.23;10.13;;;24.60;99.90;;;;;;5081243;28;20486;-48
2022/06/21 10:43:39;;;;;;;12.73;10.83;;;24.80;99.90;;;;;;5080957;28;20521;-47
2022/06/21 10:46:10;;;;;;;13.57;11.27;;;25.00;99.90;;;;;;5080286;28;20472;-48
2022/06/21 10:49:11;;;;;;;11.83;10.90;;;25.10;99.90;;;;;;5080497;28;20519;-54
2022/06/21 10:51:55;;;;;;;11.60;10.57;;;25.20;99.90;;;;;;5071900;28;20445;-48
2022/06/21 10:54:36;;;;;;;16.93;11.70;;;25.10;99.90;;;;;;5071730;28;20483;-48
2022/06/21 10:57:13;;;;;;;12.20;11.20;;;25.20;99.90;;;;;;5071115;28;20463;-52
2022/06/21 11:03:26;;;;;;;11.10;10.03;;;25.20;99.90;;;;;;5071472;28;20951;-50
2022/06/21 11:06:16;;;;;;;13.47;12.17;;;25.20;99.90;;;;;;5063054;28;20457;-48
2022/06/21 11:08:52;;;;;;;13.67;12.17;;;25.20;99.90;;;;;;5070613;28;20705;-50
2022/06/21 11:11:28;;;;;;;12.87;11.57;;;25.20;99.90;;;;;;5069896;28;20498;-50
2022/06/21 11:14:03;;;;;;;15.90;13.80;;;25.00;99.90;;;;;;5070178;28;20436;-48
2022/06/21 11:16:40;;;;;;;13.33;12.17;;;25.00;99.90;;;;;;5070597;28;20983;-48
2022/06/21 11:19:15;;;;;;;14.90;11.33;;;24.90;99.90;;;;;;5070822;28;20476;-49
2022/06/21 11:21:56;;;;;;;14.43;13.13;;;24.90;99.90;;;;;;5071052;28;20475;-47
2022/06/21 11:24:37;;;;;;;16.20;14.43;;;24.80;99.90;;;;;;5071143;28;20987;-51
2022/06/21 11:27:14;;;;;;;12.97;11.47;;;24.80;99.90;;;;;;5071250;28;20543;-48
2022/06/21 11:29:47;;;;;;;11.77;10.53;;;24.80;99.90;;;;;;5070976;28;20444;-47
2022/06/21 11:32:26;;;;;;;13.23;11.97;;;24.90;99.90;;;;;;5071370;28;20605;-49
2022/06/21 11:35:01;;;;;;;12.30;11.10;;;24.90;99.90;;;;;;5071213;28;20512;-48
2022/06/21 11:37:44;;;;;;;13.63;12.33;;;24.80;99.90;;;;;;5071040;28;20832;-48
2022/06/21 11:40:27;;;;;;;15.17;13.77;;;24.80;99.90;;;;;;5070751;28;20472;-47
2022/06/21 11:42:57;;;;;;;16.50;13.83;;;24.80;99.90;;;;;;5071172;28;20553;-49
2022/06/21 11:45:48;;;;;;;11.93;10.93;;;24.90;99.90;;;;;;5071131;28;20446;-47
2022/06/21 11:48:49;;;;;;;11.87;10.87;;;25.00;99.90;;;;;;5071090;28;20445;-49
2022/06/21 11:51:33;;;;;;;11.73;10.73;;;25.00;99.90;;;;;;5071303;28;20454;-48
2022/06/21 11:54:03;;;;;;;11.03;9.93;;;25.00;99.90;;;;;;5070996;28;20487;-49
2022/06/21 11:56:44;;;;;;;13.13;11.77;;;25.10;99.90;;;;;;5070640;28;20825;-49
2022/06/21 11:59:16;;;;;;;12.87;11.53;;;25.00;99.90;;;;;;5070244;28;20445;-47
2022/06/21 12:01:51;;;;;;;15.90;14.30;;;24.90;99.90;;;;;;5070674;28;20444;-49
2022/06/21 12:04:27;;;;;;;15.00;12.93;;;24.90;99.90;;;;;;5070125;28;20475;-49
2022/06/21 12:06:59;;;;;;;13.20;11.50;;;24.90;99.90;;;;;;5070200;28;20863;-51
2022/06/21 12:09:35;;;;;;;16.63;11.00;;;25.10;99.90;;;;;;5070692;28;20450;-48
2022/06/21 12:12:26;;;;;;;14.37;12.97;;;25.20;99.90;;;;;;5070936;28;20531;-47
2022/06/21 12:15:14;;;;;;;13.57;12.20;;;25.20;99.90;;;;;;5070907;28;20476;-48
2022/06/21 12:17:47;;;;;;;14.93;13.60;;;25.20;99.90;;;;;;5070453;28;20995;-48
2022/06/21 12:20:19;;;;;;;14.33;13.03;;;25.30;99.90;;;;;;5070346;28;20945;-47
2022/06/21 12:22:51;;;;;;;12.20;11.20;;;25.30;99.90;;;;;;5070823;28;20436;-46
2022/06/21 12:25:21;;;;;;;14.80;13.40;;;25.20;99.90;;;;;;5070873;28;20455;-49
2022/06/21 12:27:49;;;;;;;13.77;12.33;;;25.20;99.90;;;;;;5070630;28;20565;-48
2022/06/21 12:30:21;;;;;;;13.03;11.77;;;25.20;99.90;;;;;;5070693;28;20440;-49
2022/06/21 12:32:50;;;;;;;12.73;11.60;;;25.10;99.90;;;;;;5072786;28;20933;-50
2022/06/21 12:35:19;;;;;;;13.47;12.20;;;25.10;99.90;;;;;;5074415;28;20479;-48
2022/06/21 12:37:50;;;;;;;12.63;11.43;;;25.10;99.90;;;;;;5074024;28;20810;-48
2022/06/21 12:40:29;;;;;;;13.43;12.13;;;25.10;99.90;;;;;;5073918;28;20476;-48
2022/06/21 12:43:11;;;;;;;12.30;11.20;;;25.10;99.90;;;;;;5074469;28;20494;-47
2022/06/21 12:45:50;;;;;;;13.67;11.23;;;25.10;99.90;;;;;;5074276;28;20479;-47
2022/06/21 12:48:37;;;;;;;21.70;14.07;;;25.10;99.90;;;;;;5074199;28;20845;-47
2022/06/21 12:51:12;;;;;;;16.37;12.00;;;25.10;99.90;;;;;;5073771;28;21006;-50
2022/06/21 12:54:17;;;;;;;15.80;12.00;;;25.20;99.90;;;;;;5074298;28;20471;-48
2022/06/21 12:57:22;;;;;;;13.50;12.20;;;25.20;99.90;;;;;;5064286;28;20649;-48
2022/06/21 13:00:05;;;;;;;12.80;11.50;;;25.20;99.90;;;;;;5073737;28;20491;-48
2022/06/21 13:03:05;;;;;;;14.37;13.17;;;25.00;99.90;;;;;;5074396;28;20491;-47
2022/06/21 13:05:40;;;;;;;18.80;14.87;;;25.00;99.90;;;;;;5073365;28;20531;-48
2022/06/21 13:08:46;;;;;;;14.10;12.73;;;24.90;99.90;;;;;;5073980;28;20467;-48
2022/06/21 13:11:30;;;;;;;23.03;14.20;;;24.90;99.90;;;;;;5073498;28;20505;-47
2022/06/21 13:14:19;;;;;;;13.27;11.20;;;24.90;99.90;;;;;;5073714;28;20445;-50
2022/06/21 13:16:59;;;;;;;13.83;12.33;;;24.90;99.90;;;;;;5073843;28;20553;-48
2022/06/21 13:19:41;;;;;;;15.10;10.80;;;24.90;99.90;;;;;;5073287;28;20440;-48
2022/06/21 13:22:38;;;;;;;19.63;8.00;;;24.80;99.90;;;;;;5073725;28;20859;-48